Hlavní strana
METAR-TAF:

METAR-TAF

Letiště :

Nairobi, Keňa

zeměpisná šířka: 01-19S, zeměpisná délka: 036-55E, výška: 1624 m

Aktuální stav počasí

Zpráva byla vytvořena před 42 minutami, v 03:00 UTC
Západojihozápadní vítr 4 kt
Teplota 14°C
Vlhkost vzduchu 82%
Tlak 1023 hPa
Viditelnost 10 km a více
Skoro jasno ve výšce 1600 ft
Polojasno ve výšce 9000 ft

METAR: HKJK 210300Z 25004KT 9999 FEW016 SCT090 14/11 Q1023 NOSIG

Čas: 06:42 (03:42 UTC)

Předpověď počasí

Zpráva byla vytvořena před 4 hodinami a 42 minutami, v 23:00 UTC
Předpověď platná od 21 v 00 UTC do 22 v 06 UTC
Severoseverovýchodní vítr 5 kt
Viditelnost 10 km a více
Skoro jasno ve výšce 2200 ft
Změna
od 21 v 08 UTC do 21 v 11 UTC
Východoseverovýchodní vítr 13 kt
Skoro jasno ve výšce 2800 ft
Změna
od 21 v 20 UTC do 21 v 23 UTC
Severoseverovýchodní vítr 5 kt
Skoro jasno ve výšce 2200 ft

TAF: HKJK 202300Z 2100/2206 03005KT 9999 FEW022 BECMG 2108/2111 06013KT FEW028 BECMG 2120/2123 03005KT FEW022

Stav a předpovědi počasí z více než 4 000 letišť (zprávy METAR a TAF).

Červené a žluté tečky na mapě představují dostupné meteorologické stanice.

Když kurzor umístíte na tečku, zobrazí se název stanice.

Pak kliknutím zobrazíte stav a předpověď počasí.

Chcete-li změnit mapu, kliknutím na zelené tlačítko se znaménkem +mapu přiblížíte, kliknutím na zelené tlačítko se znaménkem – mapu oddálíte a kliknutím na zelené šipky přejdete na sousední mapy.


METAR-TAF: